createdAt,value
2022-08-22T00:02:37.465Z,2.30
2022-08-22T00:02:57.375Z,2.40
2022-08-22T00:02:58.022Z,2.30
2022-08-22T00:05:41.911Z,2.30
2022-08-22T00:08:30.319Z,2.60
2022-08-22T00:11:17.996Z,2.50
2022-08-22T00:14:17.369Z,2.50
2022-08-22T00:17:23.747Z,2.10
2022-08-22T00:20:15.647Z,2.03
2022-08-22T00:22:53.760Z,2.25
2022-08-22T00:25:25.715Z,2.50
2022-08-22T00:28:02.825Z,2.25
2022-08-22T00:30:43.239Z,2.40
2022-08-22T00:33:27.605Z,2.42
2022-08-22T00:36:07.310Z,2.50
2022-08-22T00:38:47.752Z,2.55
2022-08-22T00:41:30.207Z,2.33
2022-08-22T00:44:23.082Z,2.28
2022-08-22T00:47:09.785Z,2.20
2022-08-22T00:49:40.361Z,2.60
2022-08-22T00:52:32.564Z,2.53
2022-08-22T00:55:36.381Z,2.00
2022-08-22T00:58:15.518Z,2.10
2022-08-22T01:00:55.226Z,2.80
2022-08-22T01:03:30.923Z,2.30
2022-08-22T01:06:24.045Z,2.65
2022-08-22T01:09:02.759Z,2.58
2022-08-22T01:12:11.825Z,2.35
2022-08-22T01:15:02.683Z,2.90
2022-08-22T01:17:47.903Z,2.47
2022-08-22T01:20:36.801Z,1.88
2022-08-22T01:23:40.668Z,2.50
2022-08-22T01:26:26.179Z,2.25
2022-08-22T01:29:39.673Z,2.17
2022-08-22T01:32:26.432Z,2.40
2022-08-22T01:35:17.891Z,2.60
2022-08-22T01:38:06.575Z,2.40
2022-08-22T01:40:54.766Z,2.45
2022-08-22T01:43:51.352Z,2.40
2022-08-22T01:46:40.804Z,2.70
2022-08-22T01:49:35.447Z,2.50
2022-08-22T01:52:13.170Z,2.53
2022-08-22T01:55:03.041Z,2.30
2022-08-22T01:57:29.664Z,2.45
2022-08-22T02:00:01.762Z,2.30
2022-08-22T02:03:17.046Z,2.60
2022-08-22T02:05:55.077Z,2.20
2022-08-22T02:08:33.686Z,2.47
2022-08-22T02:11:08.027Z,2.15
2022-08-22T02:13:57.051Z,2.58
2022-08-22T02:16:37.557Z,2.28
2022-08-22T02:19:10.041Z,2.38
2022-08-22T02:21:55.791Z,2.72
2022-08-22T02:24:44.923Z,2.83
2022-08-22T02:27:44.015Z,2.50
2022-08-22T02:30:25.466Z,2.28
2022-08-22T02:33:08.883Z,2.50
2022-08-22T02:35:43.205Z,2.53
2022-08-22T02:38:25.417Z,2.72
2022-08-22T02:41:06.488Z,2.70
2022-08-22T02:43:49.670Z,2.88
2022-08-22T02:46:27.416Z,2.88
2022-08-22T02:49:09.181Z,2.85
2022-08-22T02:51:53.614Z,2.90
2022-08-22T02:54:36.306Z,2.70
2022-08-22T02:57:14.201Z,2.80
2022-08-22T03:00:33.333Z,2.90
2022-08-22T03:03:14.183Z,2.83
2022-08-22T03:05:49.320Z,2.67
2022-08-22T03:08:32.621Z,3.13
2022-08-22T03:11:11.044Z,2.55
2022-08-22T03:13:54.356Z,2.33
2022-08-22T03:16:36.213Z,2.50
2022-08-22T03:19:21.106Z,2.20
2022-08-22T03:22:14.162Z,2.83
2022-08-22T03:24:55.533Z,2.35
2022-08-22T03:27:36.333Z,3.00
2022-08-22T03:30:23.338Z,3.08
2022-08-22T03:32:59.184Z,3.08
2022-08-22T03:35:51.008Z,2.78
2022-08-22T03:38:27.142Z,3.05
2022-08-22T03:41:12.434Z,3.30
2022-08-22T03:44:24.351Z,2.63
2022-08-22T03:47:17.288Z,2.75
2022-08-22T03:49:43.782Z,2.90
2022-08-22T03:52:31.327Z,2.38
2022-08-22T03:55:14.096Z,3.03
2022-08-22T03:58:28.574Z,2.85
2022-08-22T04:01:13.923Z,3.05
2022-08-22T04:03:59.130Z,3.22
2022-08-22T04:06:44.604Z,2.63
2022-08-22T04:09:47.589Z,3.33
2022-08-22T04:12:39.217Z,3.08
2022-08-22T04:15:06.056Z,3.15
2022-08-22T04:17:51.547Z,3.25
2022-08-22T04:20:37.785Z,2.97
2022-08-22T04:23:27.974Z,3.17
2022-08-22T04:26:10.694Z,3.05
2022-08-22T04:28:49.211Z,2.70
2022-08-22T04:31:29.841Z,3.05
2022-08-22T04:34:02.728Z,2.80
2022-08-22T04:36:50.666Z,3.00
2022-08-22T04:39:34.333Z,2.78
2022-08-22T04:42:33.604Z,2.97
2022-08-22T04:45:13.916Z,3.20
2022-08-22T04:47:53.987Z,3.08
2022-08-22T04:50:31.012Z,3.22
2022-08-22T04:53:32.791Z,3.40
2022-08-22T04:56:22.283Z,2.90
2022-08-22T04:59:03.342Z,3.08
2022-08-22T05:02:00.376Z,3.10
2022-08-22T05:04:31.916Z,3.25
2022-08-22T05:07:07.691Z,3.20
2022-08-22T05:09:38.965Z,2.95
2022-08-22T05:12:09.721Z,3.28
2022-08-22T05:14:51.302Z,3.60
2022-08-22T05:17:25.486Z,3.28
2022-08-22T05:19:57.543Z,3.50
2022-08-22T05:22:32.945Z,3.95
2022-08-22T05:25:11.417Z,3.67
2022-08-22T05:27:49.800Z,2.88
2022-08-22T05:30:24.565Z,3.10
2022-08-22T05:33:17.010Z,2.92
2022-08-22T05:35:50.836Z,2.63
2022-08-22T05:38:23.853Z,3.03
2022-08-22T05:40:59.402Z,3.03
2022-08-22T05:43:26.763Z,3.00
2022-08-22T05:45:57.139Z,2.60
2022-08-22T05:48:37.518Z,2.65
2022-08-22T05:51:12.873Z,3.22
2022-08-22T05:53:44.543Z,3.05
2022-08-22T05:56:18.450Z,2.80
2022-08-22T05:58:51.598Z,3.55
2022-08-22T06:01:24.869Z,2.90
2022-08-22T06:04:06.973Z,3.28
2022-08-22T06:06:52.242Z,3.53
2022-08-22T06:09:35.552Z,4.00
2022-08-22T06:12:22.492Z,4.25
2022-08-22T06:15:15.637Z,3.38
2022-08-22T06:18:06.118Z,2.90
2022-08-22T06:20:39.333Z,3.20
2022-08-22T06:23:08.167Z,3.47
2022-08-22T06:25:39.222Z,3.95
2022-08-22T06:28:12.754Z,3.95
2022-08-22T06:30:40.231Z,3.63
2022-08-22T06:33:12.658Z,3.60
2022-08-22T06:36:07.874Z,3.33
2022-08-22T06:38:53.151Z,2.92
2022-08-22T06:41:22.487Z,3.00
2022-08-22T06:43:52.730Z,2.78
2022-08-22T06:46:21.322Z,2.83
2022-08-22T06:48:49.110Z,2.83
2022-08-22T06:51:18.618Z,2.45
2022-08-22T06:53:53.740Z,2.63
2022-08-22T06:56:24.483Z,2.95
2022-08-22T06:58:56.611Z,2.63
2022-08-22T07:01:29.061Z,2.20
2022-08-22T07:04:05.396Z,2.30
2022-08-22T07:06:36.617Z,2.30
2022-08-22T07:09:06.852Z,2.38
2022-08-22T07:11:43.208Z,2.40
2022-08-22T07:14:14.413Z,3.30
2022-08-22T07:16:43.920Z,2.80
2022-08-22T07:19:24.013Z,2.20
2022-08-22T07:21:50.829Z,2.60
2022-08-22T07:24:22.631Z,2.30
2022-08-22T07:26:58.847Z,2.13
2022-08-22T07:29:38.901Z,2.33
2022-08-22T07:32:16.130Z,2.17
2022-08-22T07:35:04.115Z,1.98
2022-08-22T07:37:51.914Z,2.22
2022-08-22T07:40:43.081Z,2.42
2022-08-22T07:43:28.859Z,1.98
2022-08-22T07:46:01.431Z,1.90
2022-08-22T07:49:05.871Z,1.90
2022-08-22T07:51:37.007Z,2.42
2022-08-22T07:54:08.133Z,2.28
2022-08-22T07:56:42.373Z,1.70
2022-08-22T07:59:16.318Z,2.00
2022-08-22T08:01:51.127Z,1.98
2022-08-22T08:04:23.236Z,1.70
2022-08-22T08:06:53.309Z,1.63
2022-08-22T08:09:21.141Z,2.05
2022-08-22T08:11:51.738Z,1.67
2022-08-22T08:14:21.836Z,1.90
2022-08-22T08:17:02.281Z,2.00
2022-08-22T08:19:35.700Z,1.40
2022-08-22T08:22:04.724Z,1.85
2022-08-22T08:24:39.935Z,1.65
2022-08-22T08:27:33.321Z,1.63
2022-08-22T08:30:04.875Z,1.30
2022-08-22T08:32:35.232Z,1.70
2022-08-22T08:35:29.867Z,1.40
2022-08-22T08:38:18.300Z,1.83
2022-08-22T08:41:11.986Z,1.63
2022-08-22T08:44:03.205Z,1.40
2022-08-22T08:46:35.477Z,1.40
2022-08-22T08:49:24.142Z,1.33
2022-08-22T08:52:28.489Z,1.40
2022-08-22T08:55:16.027Z,1.60
2022-08-22T08:58:06.804Z,1.30
2022-08-22T09:00:45.931Z,1.30
2022-08-22T09:03:46.255Z,1.55
2022-08-22T09:06:18.443Z,1.60
2022-08-22T09:09:03.849Z,1.73
2022-08-22T09:11:50.763Z,1.40
2022-08-22T09:14:48.352Z,1.38
2022-08-22T09:18:03.574Z,1.27
2022-08-22T09:21:03.267Z,1.80
2022-08-22T09:24:05.268Z,1.23
2022-08-22T09:26:48.102Z,1.58
2022-08-22T09:29:33.607Z,1.38
2022-08-22T09:32:19.832Z,1.40
2022-08-22T09:35:13.588Z,1.40
2022-08-22T09:38:00.463Z,1.25
2022-08-22T09:40:32.244Z,1.13
2022-08-22T09:43:21.356Z,1.80
2022-08-22T09:46:10.792Z,1.38
2022-08-22T09:48:48.710Z,1.48
2022-08-22T09:51:31.602Z,1.10
2022-08-22T09:54:14.658Z,1.67
2022-08-22T09:57:00.707Z,1.27
2022-08-22T09:59:48.619Z,1.48
2022-08-22T10:02:43.483Z,0.98
2022-08-22T10:05:35.133Z,1.27
2022-08-22T10:08:14.948Z,1.05
2022-08-22T10:11:06.660Z,1.23
2022-08-22T10:13:38.434Z,1.10
2022-08-22T10:16:21.344Z,1.15
2022-08-22T10:19:00.562Z,1.02
2022-08-22T10:21:39.390Z,1.33
2022-08-22T10:24:25.596Z,1.30
2022-08-22T10:27:09.028Z,1.40
2022-08-22T10:29:51.506Z,1.38
2022-08-22T10:32:36.074Z,1.10
2022-08-22T10:35:27.760Z,1.08
2022-08-22T10:38:03.065Z,1.05
2022-08-22T10:40:37.946Z,1.10
2022-08-22T10:43:31.190Z,1.27
2022-08-22T10:46:06.665Z,1.10
2022-08-22T10:48:56.992Z,0.98
2022-08-22T10:51:38.986Z,0.90
2022-08-22T10:54:20.000Z,1.15
2022-08-22T10:57:08.367Z,0.95
2022-08-22T11:00:01.759Z,0.80
2022-08-22T11:02:39.157Z,1.02
2022-08-22T11:05:18.063Z,0.93
2022-08-22T11:08:23.013Z,1.20
2022-08-22T11:11:05.584Z,1.10
2022-08-22T11:13:56.277Z,0.85
2022-08-22T11:16:28.601Z,1.10
2022-08-22T11:19:32.923Z,1.02
2022-08-22T11:22:25.617Z,1.02
2022-08-22T11:25:35.732Z,1.20
2022-08-22T11:28:22.196Z,1.10
2022-08-22T11:30:57.833Z,1.08
2022-08-22T11:33:47.473Z,0.90
2022-08-22T11:36:30.926Z,1.02
2022-08-22T11:39:06.521Z,0.98
2022-08-22T11:41:52.328Z,1.20
2022-08-22T11:44:32.137Z,1.00
2022-08-22T11:47:07.852Z,1.25
2022-08-22T11:49:56.730Z,1.17
2022-08-22T11:52:36.625Z,1.00
2022-08-22T11:55:38.545Z,1.38
2022-08-22T11:58:14.103Z,0.93
2022-08-22T12:00:55.390Z,1.20
2022-08-22T12:04:03.413Z,1.02
2022-08-22T12:06:45.743Z,0.88
2022-08-22T12:09:17.943Z,0.93
2022-08-22T12:11:45.255Z,1.10
2022-08-22T12:14:26.887Z,0.80
2022-08-22T12:17:12.894Z,1.00
2022-08-22T12:20:27.577Z,0.90
2022-08-22T12:23:30.054Z,0.90
2022-08-22T12:26:29.148Z,1.25
2022-08-22T12:29:28.561Z,0.88
2022-08-22T12:32:27.427Z,1.08
2022-08-22T12:35:13.730Z,0.80
2022-08-22T12:37:53.021Z,0.75
2022-08-22T12:40:43.647Z,0.80
2022-08-22T12:43:22.273Z,1.00
2022-08-22T12:46:13.033Z,0.70
2022-08-22T12:48:55.119Z,1.00
2022-08-22T12:51:30.572Z,0.90
2022-08-22T12:54:29.278Z,0.90
2022-08-22T12:57:23.944Z,1.15
2022-08-22T12:59:58.199Z,0.82
2022-08-22T13:02:30.427Z,0.90
2022-08-22T13:04:57.057Z,1.00
2022-08-22T13:07:29.111Z,1.20
2022-08-22T13:10:40.233Z,1.45
2022-08-22T13:13:12.081Z,1.00
2022-08-22T13:15:56.526Z,0.90
2022-08-22T13:18:31.130Z,1.10
2022-08-22T13:21:02.617Z,1.10
2022-08-22T13:23:39.923Z,1.10
2022-08-22T13:26:31.628Z,1.40
2022-08-22T13:29:24.638Z,1.10
2022-08-22T13:32:01.577Z,1.05
2022-08-22T13:34:43.637Z,1.20
2022-08-22T13:37:24.588Z,1.42
2022-08-22T13:39:58.522Z,1.17
2022-08-22T13:42:30.864Z,0.98
2022-08-22T13:45:02.970Z,1.10
2022-08-22T13:47:34.719Z,1.10
2022-08-22T13:50:14.034Z,1.00
2022-08-22T13:52:52.597Z,1.20
2022-08-22T13:56:05.019Z,1.10
2022-08-22T13:58:42.572Z,1.00
2022-08-22T14:01:20.009Z,0.90
2022-08-22T14:04:17.783Z,0.90
2022-08-22T14:07:04.650Z,0.70
2022-08-22T14:09:36.444Z,0.82
2022-08-22T14:12:15.488Z,0.82
2022-08-22T14:14:46.357Z,1.00
2022-08-22T14:17:19.854Z,0.90
2022-08-22T14:19:59.344Z,0.90
2022-08-22T14:22:34.918Z,1.10
2022-08-22T14:25:21.564Z,0.93
2022-08-22T14:28:06.115Z,1.10
2022-08-22T14:30:54.269Z,0.77
2022-08-22T14:33:28.379Z,0.90
2022-08-22T14:36:02.897Z,0.82
2022-08-22T14:38:32.096Z,1.00
2022-08-22T14:41:06.857Z,0.80
2022-08-22T14:43:48.293Z,0.95
2022-08-22T14:46:23.518Z,1.00
2022-08-22T14:48:56.214Z,1.10
2022-08-22T14:51:25.455Z,0.77
2022-08-22T14:53:52.630Z,0.95
2022-08-22T14:56:23.278Z,1.10
2022-08-22T14:58:50.685Z,0.98
2022-08-22T15:01:21.802Z,1.17
2022-08-22T15:03:53.848Z,0.93
2022-08-22T15:06:36.020Z,0.90
2022-08-22T15:09:41.985Z,1.45
2022-08-22T15:12:32.131Z,0.98
2022-08-22T15:15:01.857Z,1.15
2022-08-22T15:17:38.492Z,1.10
2022-08-22T15:20:22.735Z,1.02
2022-08-22T15:23:01.605Z,0.90
2022-08-22T15:25:41.139Z,1.13
2022-08-22T15:28:20.572Z,0.98
2022-08-22T15:31:03.483Z,1.00
2022-08-22T15:33:39.064Z,2.15
2022-08-22T15:36:21.205Z,1.05
2022-08-22T15:38:50.709Z,1.40
2022-08-22T15:41:36.702Z,1.20
2022-08-22T15:44:30.767Z,1.05
2022-08-22T15:47:03.119Z,1.17
2022-08-22T15:49:34.696Z,1.08
2022-08-22T15:52:01.141Z,1.13
2022-08-22T15:54:44.247Z,1.00
2022-08-22T15:57:40.317Z,1.00
2022-08-22T16:00:30.812Z,0.82
2022-08-22T16:03:01.408Z,1.13
2022-08-22T16:05:44.492Z,1.05
2022-08-22T16:08:21.745Z,1.52
2022-08-22T16:11:06.724Z,1.40
2022-08-22T16:13:38.185Z,1.00
2022-08-22T16:16:34.005Z,0.90
2022-08-22T16:19:03.205Z,1.17
2022-08-22T16:21:29.642Z,1.15
2022-08-22T16:23:56.704Z,0.80
2022-08-22T16:26:24.279Z,1.17
2022-08-22T16:28:59.446Z,0.70
2022-08-22T16:32:01.327Z,1.20
2022-08-22T16:34:37.073Z,1.00
2022-08-22T16:37:03.535Z,1.00
2022-08-22T16:39:46.121Z,1.10
2022-08-22T16:42:12.646Z,1.13
2022-08-22T16:44:54.773Z,0.93
2022-08-22T16:48:05.298Z,1.20
2022-08-22T16:50:38.180Z,1.00
2022-08-22T16:53:10.406Z,0.90
2022-08-22T16:55:55.572Z,1.13
2022-08-22T16:58:57.059Z,1.15
2022-08-22T17:01:47.852Z,1.10
2022-08-22T17:04:32.478Z,1.15
2022-08-22T17:07:42.990Z,1.20
2022-08-22T17:10:36.087Z,1.20
2022-08-22T17:13:22.309Z,1.05
2022-08-22T17:16:31.553Z,1.10
2022-08-22T17:19:37.316Z,1.23
2022-08-22T17:22:18.148Z,1.23
2022-08-22T17:24:50.743Z,1.25
2022-08-22T17:27:37.302Z,1.30
2022-08-22T17:30:07.256Z,1.40
2022-08-22T17:33:03.027Z,1.30
2022-08-22T17:36:26.856Z,1.50
2022-08-22T17:39:29.138Z,1.75
2022-08-22T17:42:35.482Z,1.50
2022-08-22T17:45:28.120Z,1.20
2022-08-22T17:48:12.082Z,1.88
2022-08-22T17:50:46.586Z,1.48
2022-08-22T17:53:31.120Z,1.55
2022-08-22T17:56:16.324Z,2.25
2022-08-22T17:58:54.209Z,1.73
2022-08-22T18:01:43.885Z,1.90
2022-08-22T18:04:23.082Z,1.52
2022-08-22T18:06:58.370Z,1.77
2022-08-22T18:09:39.020Z,1.67
2022-08-22T18:12:17.281Z,1.60
2022-08-22T18:15:02.912Z,1.50
2022-08-22T18:17:41.272Z,1.60
2022-08-22T18:20:17.128Z,1.60
2022-08-22T18:22:50.813Z,1.48
2022-08-22T18:25:17.243Z,1.67
2022-08-22T18:27:55.936Z,1.80
2022-08-22T18:30:28.344Z,1.55
2022-08-22T18:32:59.786Z,1.65
2022-08-22T18:35:40.227Z,1.55
2022-08-22T18:38:32.075Z,1.65
2022-08-22T18:41:07.391Z,1.60
2022-08-22T18:43:40.740Z,1.83
2022-08-22T18:46:38.123Z,1.77
2022-08-22T18:49:20.251Z,1.55
2022-08-22T18:52:05.499Z,1.80
2022-08-22T18:55:02.892Z,1.50
2022-08-22T18:58:14.482Z,1.48
2022-08-22T19:01:00.455Z,1.40
2022-08-22T19:03:51.929Z,1.50
2022-08-22T19:06:43.438Z,1.70
2022-08-22T19:09:41.212Z,1.60
2022-08-22T19:12:35.844Z,1.83
2022-08-22T19:15:33.470Z,1.80
2022-08-22T19:18:23.045Z,1.50
2022-08-22T19:21:46.331Z,1.92
2022-08-22T19:24:42.789Z,1.83
2022-08-22T19:27:18.479Z,1.80
2022-08-22T19:29:45.055Z,1.75
2022-08-22T19:32:46.741Z,1.73
2022-08-22T19:35:24.648Z,1.73
2022-08-22T19:37:58.366Z,1.85
2022-08-22T19:40:58.309Z,1.83
2022-08-22T19:43:40.483Z,1.77
2022-08-22T19:46:11.922Z,1.70
2022-08-22T19:48:47.874Z,1.67
2022-08-22T19:51:20.433Z,1.52
2022-08-22T19:53:47.209Z,1.60
2022-08-22T19:56:52.638Z,1.65
2022-08-22T20:00:00.236Z,1.90
2022-08-22T20:02:37.573Z,1.42
2022-08-22T20:05:22.151Z,1.60
2022-08-22T20:08:04.582Z,1.58
2022-08-22T20:11:03.540Z,1.45
2022-08-22T20:13:33.314Z,1.80
2022-08-22T20:16:23.686Z,1.60
2022-08-22T20:19:15.480Z,1.95
2022-08-22T20:21:55.104Z,1.75
2022-08-22T20:24:43.409Z,1.65
2022-08-22T20:27:29.146Z,1.70
2022-08-22T20:30:07.797Z,2.00
2022-08-22T20:32:58.061Z,1.65
2022-08-22T20:35:52.551Z,1.60
2022-08-22T20:38:23.572Z,2.00
2022-08-22T20:40:58.000Z,1.67
2022-08-22T20:43:51.543Z,1.48
2022-08-22T20:46:37.841Z,1.90
2022-08-22T20:49:17.899Z,1.50
2022-08-22T20:51:55.249Z,2.10
2022-08-22T20:54:24.794Z,1.88
2022-08-22T20:56:55.867Z,1.60
2022-08-22T20:59:31.584Z,1.60
2022-08-22T21:02:45.017Z,2.22
2022-08-22T21:05:11.554Z,1.98
2022-08-22T21:07:39.324Z,1.70
2022-08-22T21:10:34.100Z,2.17
2022-08-22T21:13:10.816Z,1.92
2022-08-22T21:15:49.441Z,1.65
2022-08-22T21:18:27.591Z,1.58
2022-08-22T21:20:55.140Z,1.70
2022-08-22T21:23:21.798Z,1.88
2022-08-22T21:26:00.951Z,1.67
2022-08-22T21:28:35.844Z,1.70
2022-08-22T21:31:31.321Z,1.45
2022-08-22T21:33:58.522Z,1.67
2022-08-22T21:36:29.058Z,2.17
2022-08-22T21:39:03.849Z,1.55
2022-08-22T21:41:47.865Z,1.70
2022-08-22T21:44:28.511Z,1.88
2022-08-22T21:46:55.696Z,1.40
2022-08-22T21:49:29.441Z,1.52
2022-08-22T21:51:56.393Z,1.70
2022-08-22T21:54:26.064Z,1.83
2022-08-22T21:56:55.784Z,1.55
2022-08-22T21:59:51.593Z,1.88
2022-08-22T22:02:37.659Z,2.15
2022-08-22T22:05:17.822Z,1.67
2022-08-22T22:07:46.984Z,1.90
2022-08-22T22:10:16.703Z,1.83
2022-08-22T22:12:45.214Z,1.80
2022-08-22T22:15:19.100Z,1.80
2022-08-22T22:17:45.810Z,1.60
2022-08-22T22:20:16.277Z,2.00
2022-08-22T22:22:46.468Z,1.80
2022-08-22T22:25:40.570Z,2.25
2022-08-22T22:28:09.308Z,1.70
2022-08-22T22:30:36.452Z,1.80
2022-08-22T22:33:03.149Z,1.63
2022-08-22T22:35:30.376Z,2.20
2022-08-22T22:37:56.986Z,1.85
2022-08-22T22:40:24.355Z,1.92
2022-08-22T22:42:51.118Z,1.85
2022-08-22T22:45:17.631Z,1.80
2022-08-22T22:47:44.390Z,1.90
2022-08-22T22:50:10.962Z,1.90
2022-08-22T22:52:38.521Z,1.75
2022-08-22T22:55:09.175Z,2.00
2022-08-22T22:57:41.387Z,1.60
2022-08-22T23:00:11.804Z,1.77
2022-08-22T23:02:38.933Z,1.75
2022-08-22T23:05:07.250Z,1.50
2022-08-22T23:07:34.166Z,1.73
2022-08-22T23:10:01.517Z,1.80
2022-08-22T23:12:28.886Z,1.70
2022-08-22T23:14:55.588Z,1.80
2022-08-22T23:17:22.255Z,1.63
2022-08-22T23:19:51.064Z,1.63
2022-08-22T23:22:17.990Z,1.63
2022-08-22T23:24:44.587Z,1.60
2022-08-22T23:27:11.582Z,1.70
2022-08-22T23:29:43.516Z,1.70
2022-08-22T23:32:11.543Z,1.75
2022-08-22T23:34:46.044Z,1.90
2022-08-22T23:37:18.641Z,1.67
2022-08-22T23:39:45.324Z,1.85
2022-08-22T23:42:13.044Z,2.20
2022-08-22T23:44:41.459Z,1.90
2022-08-22T23:47:10.208Z,1.80
2022-08-22T23:49:38.126Z,1.90
2022-08-22T23:52:06.464Z,1.90
2022-08-22T23:54:33.872Z,2.28
2022-08-22T23:57:02.719Z,2.30
2022-08-22T23:59:40.165Z,1.80
